Bell Center, Wisconsin
Current Conditions -  °F | °C
As of 12:53 PM on Monday 20 Oct 2014 (Local Time) from KOVS Reporting Station
Broken Clouds Broken Clouds  
Wind Chill: 65°   Ceiling: 4700
Heat Index: 65°   Visibility: 10mi
Dew Point: 43°   Wind: 12mph
Humidity: 45%   Direction: 340°NNW
Pressure: 29.92"   Gusts: 20mph
Location:  43.2876°N, 90.8505°W
Report Text: KOVS 201753Z AUTO 34010G17KT 10SM BKN047 18/06 A2992 RMK AO2 SLP134 T01830061 10183 20050 58008
Loading
Personal Weather Stations






























Interactive Weather Map
Tropical Storm Tracking
New forecast layout! Learn more

10-Day Weather Forecast

Advertisements
Track Severe Weather on mobile